Columbus, Ohio
Traffic Map
Current Weather Conditions
Columbus, Ohio
Overcast
Overcast
42°
Feels Like: 42°
Wind Chill: 42° Ceiling: 15000
Heat Index: 42° Visibility: 9mi
Dew Point: 38° Wind: 0mph
Humidity: 85% Direction: ° ()
Pressure: 30.12in Gusts: 0mph
Raw Report DataKCMH 241051Z 00000KT 9SM OVC150 06/03 A3012 RMK AO2 SLP203 T00560033
Traffic Incident Summary
Active as of:
Severity:
Category:
InformationThere was an issue retrieving the traffic information for this location. Please try a different location or try again shortly.
Advertisements
Track Severe Weather on mobile